Time;durP1;ratioP1;P1;durP2;ratioP2;P2;SDS_P1;SDS_P2;PMS_P1;PMS_P2;Temp;Humidity;BMP_temperature;BMP_pressure;BME280_temperature;BME280_humidity;BME280_pressure;Samples;Min_cycle;Max_cycle;Signal;HPM_P1;HPM_P2
2022/10/29 00:02:23;;;;;;;6.63;2.90;;;;;;;-140.72;100.00;52869.75;5028377;28;20079;-66
2022/10/29 00:04:48;;;;;;;11.45;2.50;;;;;;;-140.72;100.00;52835.25;5025147;28;20026;-66
2022/10/29 00:07:40;;;;;;;8.52;2.47;;;;;;;-140.72;100.00;52812.94;5026263;28;20026;-66
2022/10/29 00:10:06;;;;;;;10.02;2.97;;;;;;;-140.72;100.00;52825.13;5022619;28;20432;-66
2022/10/29 00:12:33;;;;;;;10.25;2.40;;;;;;;-140.72;100.00;52839.31;5021856;28;20021;-68
2022/10/29 00:14:58;;;;;;;8.25;2.85;;;;;;;-140.72;100.00;52817.00;5034842;28;20396;-66
2022/10/29 00:17:24;;;;;;;4.82;2.25;;;;;;;-140.72;100.00;52831.19;5025430;28;20037;-66
2022/10/29 00:19:49;;;;;;;3.00;1.90;;;;;;;-140.72;100.00;52835.25;5022298;28;20108;-65
2022/10/29 00:22:14;;;;;;;4.55;2.40;;;;;;;-140.72;100.00;52857.59;5026026;28;20444;-67
2022/10/29 00:24:40;;;;;;;5.32;2.08;;;;;;;-140.72;100.00;52863.66;5022146;28;20022;-66
2022/10/29 00:27:05;;;;;;;5.68;2.97;;;;;;;-140.72;100.00;52823.09;5019819;28;20033;-67
2022/10/29 00:29:31;;;;;;;8.45;2.40;;;;;;;-140.72;100.00;52875.84;5025863;28;20045;-67
2022/10/29 00:31:56;;;;;;;7.63;2.20;;;;;;;-140.72;100.00;52837.28;5024974;28;20481;-67
2022/10/29 00:34:21;;;;;;;4.55;2.15;;;;;;;-140.72;100.00;52849.47;5025210;28;20034;-67
2022/10/29 00:36:46;;;;;;;3.75;2.30;;;;;;;-140.72;100.00;52888.03;5025708;28;20025;-66
2022/10/29 00:39:14;;;;;;;6.47;2.47;;;;;;;-140.72;100.00;52831.19;5023141;28;20032;-66
2022/10/29 00:41:43;;;;;;;3.28;2.13;;;;;;;-140.72;100.00;52857.59;5030206;28;20022;-66
2022/10/29 00:44:19;;;;;;;5.72;1.50;;;;;;;-140.72;100.00;52857.59;5018953;28;20040;-66
2022/10/29 00:47:06;;;;;;;4.22;1.85;;;;;;;-140.72;100.00;52827.16;5025751;28;20546;-66
2022/10/29 00:49:33;;;;;;;5.60;2.30;;;;;;;-140.72;100.00;52831.19;5022480;28;20432;-66
2022/10/29 00:52:01;;;;;;;6.63;2.03;;;;;;;-140.72;100.00;52869.75;5025338;28;20022;-66
2022/10/29 00:54:29;;;;;;;4.78;2.38;;;;;;;-140.72;100.00;52898.16;5027990;28;20050;-66
2022/10/29 00:57:02;;;;;;;5.18;2.35;;;;;;;-140.72;100.00;52837.28;5024836;28;20076;-66
2022/10/29 00:59:27;;;;;;;3.63;1.77;;;;;;;-140.72;100.00;52857.59;5020439;28;20045;-67
2022/10/29 01:01:54;;;;;;;4.68;1.85;;;;;;;-140.72;100.00;52873.81;5024290;28;20037;-66
2022/10/29 01:04:21;;;;;;;4.97;2.20;;;;;;;-140.72;100.00;52890.06;5030123;28;20030;-65
2022/10/29 01:06:47;;;;;;;3.65;2.03;;;;;;;-140.72;100.00;52892.09;5020040;28;20034;-66
2022/10/29 01:09:13;;;;;;;4.13;1.90;;;;;;;-140.72;100.00;52853.53;5022201;28;20065;-66
2022/10/29 01:11:38;;;;;;;5.22;2.08;;;;;;;-140.72;100.00;52881.94;5020325;28;20370;-65
2022/10/29 01:14:09;;;;;;;3.88;2.40;;;;;;;-140.72;100.00;52879.91;5027292;28;20491;-66
2022/10/29 01:16:46;;;;;;;4.20;1.70;;;;;;;-140.72;100.00;52871.78;5020019;28;20049;-65
2022/10/29 01:19:17;;;;;;;5.43;2.13;;;;;;;-140.72;100.00;52857.59;5022106;28;20414;-68
2022/10/29 01:21:50;;;;;;;3.58;1.88;;;;;;;-140.72;100.00;52877.88;5020938;28;20044;-66
2022/10/29 01:24:44;;;;;;;5.43;2.35;;;;;;;-140.72;100.00;52857.59;5029747;28;20104;-67
2022/10/29 01:27:30;;;;;;;4.38;2.42;;;;;;;-140.72;100.00;52865.69;5027882;28;20022;-67
2022/10/29 01:30:14;;;;;;;5.10;1.90;;;;;;;-140.72;100.00;52881.94;5030336;28;20029;-66
2022/10/29 01:32:53;;;;;;;5.53;2.15;;;;;;;-140.72;100.00;52886.00;5028654;28;20022;-66
2022/10/29 01:35:31;;;;;;;8.45;2.88;;;;;;;-140.72;100.00;52863.66;5023070;28;20029;-66
2022/10/29 01:38:08;;;;;;;7.63;2.97;;;;;;;-140.72;100.00;52906.28;5023999;28;20022;-66
2022/10/29 01:40:51;;;;;;;12.00;3.28;;;;;;;-140.72;100.00;52886.00;5029428;28;20026;-66
2022/10/29 01:43:27;;;;;;;7.97;3.08;;;;;;;-140.72;100.00;52873.81;5026491;28;20473;-66
2022/10/29 01:46:19;;;;;;;8.23;2.80;;;;;;;-140.72;100.00;52861.66;5029974;28;20029;-66
2022/10/29 01:48:57;;;;;;;6.13;2.58;;;;;;;-140.72;100.00;52875.84;5023303;28;20042;-66
2022/10/29 01:51:27;;;;;;;6.90;2.70;;;;;;;-140.72;100.00;52841.34;5022341;28;20329;-66
2022/10/29 01:54:10;;;;;;;;;;;;;;;-140.72;100.00;52879.91;5021446;28;20418;-66
2022/10/29 01:56:36;;;;;;;4.68;2.10;;;;;;;-140.72;100.00;52906.28;5025032;28;19909;-66
2022/10/29 01:59:06;;;;;;;7.53;2.40;;;;;;;-140.72;100.00;52934.69;5021101;28;20044;-66
2022/10/29 02:01:40;;;;;;;2.08;1.42;;;;;;;-140.72;100.00;52908.31;5020681;28;20053;-66
2022/10/29 02:04:44;;;;;;;6.80;2.45;;;;;;;-140.72;100.00;52881.94;5021625;28;20034;-67
2022/10/29 02:07:16;;;;;;;4.50;2.55;;;;;;;-140.72;100.00;52871.78;5037943;28;20033;-66
2022/10/29 02:10:21;;;;;;;3.33;2.03;;;;;;;-140.72;100.00;52861.66;5027772;28;20487;-66
2022/10/29 02:12:50;;;;;;;4.82;2.28;;;;;;;-140.72;100.00;52930.66;5023924;28;20038;-67
2022/10/29 02:15:41;;;;;;;4.50;2.95;;;;;;;-140.72;100.00;52906.28;5021818;28;20070;-67
2022/10/29 02:18:07;;;;;;;3.85;2.15;;;;;;;-140.72;100.00;52845.41;5019293;28;20053;-66
2022/10/29 02:20:33;;;;;;;5.55;2.35;;;;;;;-140.72;100.00;52865.69;5025012;28;20469;-66
2022/10/29 02:22:59;;;;;;;4.00;2.17;;;;;;;-140.72;100.00;52869.75;5024002;28;20121;-66
2022/10/29 02:25:26;;;;;;;3.17;2.08;;;;;;;-140.72;100.00;52896.16;5021098;28;20092;-66
2022/10/29 02:27:52;;;;;;;3.88;1.95;;;;;;;-140.72;100.00;52890.06;5031254;28;20040;-66
2022/10/29 02:30:17;;;;;;;4.32;2.17;;;;;;;-140.72;100.00;52888.03;5022336;28;20022;-66
2022/10/29 02:32:43;;;;;;;4.80;2.63;;;;;;;-140.72;100.00;52906.28;5039712;22;20092;-69
2022/10/29 02:35:08;;;;;;;6.43;2.70;;;;;;;-140.72;100.00;52886.00;5024168;28;20435;-69
2022/10/29 02:37:36;;;;;;;4.38;2.38;;;;;;;-140.72;100.00;52877.88;5023965;28;20034;-68
2022/10/29 02:40:01;;;;;;;4.88;2.83;;;;;;;-140.72;100.00;52920.50;5023181;28;20084;-69
2022/10/29 02:42:27;;;;;;;4.30;2.28;;;;;;;-140.72;100.00;52902.22;5019512;28;20022;-68
2022/10/29 02:44:52;;;;;;;5.10;2.17;;;;;;;-140.72;100.00;52879.91;5029424;28;20383;-69
2022/10/29 02:47:18;;;;;;;4.45;2.10;;;;;;;-140.72;100.00;52869.75;5018641;28;20535;-68
2022/10/29 02:50:05;;;;;;;3.45;2.28;;;;;;;-140.72;100.00;52833.22;5021469;28;20108;-68
2022/10/29 02:52:31;;;;;;;3.60;2.40;;;;;;;-140.72;100.00;52859.63;5031998;28;20033;-68
2022/10/29 02:54:58;;;;;;;3.38;2.17;;;;;;;-140.72;100.00;52894.13;5014953;28;20100;-67
2022/10/29 02:57:24;;;;;;;5.32;2.65;;;;;;;-140.72;100.00;52877.88;5023769;28;20032;-68
2022/10/29 02:59:49;;;;;;;3.60;1.92;;;;;;;-140.72;100.00;52890.06;5020542;28;20018;-68
2022/10/29 03:02:14;;;;;;;2.78;2.03;;;;;;;-140.72;100.00;52877.88;5025172;28;20384;-68
2022/10/29 03:04:40;;;;;;;4.13;2.47;;;;;;;-140.72;100.00;52902.22;5015595;28;20028;-68
2022/10/29 03:07:05;;;;;;;3.92;2.50;;;;;;;-140.72;100.00;52892.09;5023770;28;20026;-68
2022/10/29 03:09:31;;;;;;;3.85;2.58;;;;;;;-140.72;100.00;52873.81;5022907;28;20370;-68
2022/10/29 03:11:56;;;;;;;4.63;2.65;;;;;;;-140.72;100.00;52879.91;5033677;28;20037;-69
2022/10/29 03:14:21;;;;;;;4.25;2.55;;;;;;;-140.72;100.00;52908.31;5033921;28;20056;-68
2022/10/29 03:16:47;;;;;;;5.70;2.97;;;;;;;-140.72;100.00;52886.00;5031014;28;20072;-68
2022/10/29 03:19:12;;;;;;;5.18;2.60;;;;;;;-140.72;100.00;52904.25;5033191;28;20035;-69
2022/10/29 03:21:37;;;;;;;5.95;3.40;;;;;;;-140.72;100.00;52861.66;5032955;28;20022;-68
2022/10/29 03:24:03;;;;;;;3.40;2.72;;;;;;;-140.72;100.00;52873.81;5020242;28;20082;-68
2022/10/29 03:26:29;;;;;;;6.97;2.60;;;;;;;-140.72;100.00;52875.84;5036841;28;20036;-68
2022/10/29 03:28:54;;;;;;;3.72;2.30;;;;;;;-140.72;100.00;52896.16;5034174;28;20025;-68
2022/10/29 03:31:20;;;;;;;5.28;2.88;;;;;;;-140.72;100.00;52845.41;5035152;28;20528;-68
2022/10/29 03:33:45;;;;;;;7.82;3.50;;;;;;;-140.72;100.00;52845.41;5034611;28;20084;-68
2022/10/29 03:36:10;;;;;;;6.90;3.28;;;;;;;-140.72;100.00;52843.38;5037168;28;20029;-69
2022/10/29 03:38:36;;;;;;;5.53;3.50;;;;;;;-140.72;100.00;52849.47;5033263;28;20135;-69
2022/10/29 03:41:07;;;;;;;9.52;3.85;;;;;;;-140.72;100.00;52839.31;5025637;28;20041;-69
2022/10/29 03:43:33;;;;;;;9.10;3.63;;;;;;;-140.72;100.00;52865.69;5032330;28;20374;-69
2022/10/29 03:45:58;;;;;;;6.70;2.85;;;;;;;-140.72;100.00;52833.22;5027990;28;20168;-67
2022/10/29 03:48:24;;;;;;;7.93;3.30;;;;;;;-140.72;100.00;52861.66;5019742;28;20354;-68
2022/10/29 03:50:58;;;;;;;5.28;3.35;;;;;;;-140.72;100.00;52869.75;5035528;28;20026;-68
2022/10/29 03:53:24;;;;;;;7.47;3.28;;;;;;;-140.72;100.00;52833.22;5035164;28;20108;-68
2022/10/29 03:55:51;;;;;;;8.43;4.53;;;;;;;-140.72;100.00;52845.41;5025606;28;20559;-68
2022/10/29 03:58:17;;;;;;;5.45;4.03;;;;;;;-140.72;100.00;52875.84;5030733;28;20060;-68
2022/10/29 04:00:43;;;;;;;7.32;3.92;;;;;;;-140.72;100.00;52845.41;5026096;28;20026;-68
2022/10/29 04:03:08;;;;;;;5.80;4.25;;;;;;;-140.72;100.00;52845.41;5022053;28;20029;-69
2022/10/29 04:05:33;;;;;;;6.80;4.70;;;;;;;-140.72;100.00;52861.66;5034964;28;20025;-68
2022/10/29 04:07:58;;;;;;;6.63;3.95;;;;;;;-140.72;100.00;52853.53;5030743;28;20104;-68
2022/10/29 04:10:25;;;;;;;9.07;4.53;;;;;;;-140.72;100.00;52855.56;5022065;28;20034;-69
2022/10/29 04:12:51;;;;;;;6.13;3.88;;;;;;;-140.72;100.00;52879.91;5018022;28;20040;-68
2022/10/29 04:15:16;;;;;;;6.32;4.63;;;;;;;-140.72;100.00;52847.44;5025714;28;20025;-68
2022/10/29 04:17:41;;;;;;;9.27;4.90;;;;;;;-140.72;100.00;52861.66;5035631;28;20068;-68
2022/10/29 04:20:07;;;;;;;5.80;4.03;;;;;;;-140.72;100.00;52857.59;5024382;28;20056;-67
2022/10/29 04:22:32;;;;;;;7.32;5.03;;;;;;;-140.72;100.00;52869.75;5019469;28;20033;-67
2022/10/29 04:24:58;;;;;;;8.00;5.03;;;;;;;-140.72;100.00;52883.97;5036884;28;20053;-68
2022/10/29 04:27:23;;;;;;;7.20;4.05;;;;;;;-140.72;100.00;52823.09;5031784;28;20116;-69
2022/10/29 04:29:48;;;;;;;5.63;3.38;;;;;;;-140.72;100.00;52843.38;5026480;28;20031;-68
2022/10/29 04:32:14;;;;;;;6.10;4.40;;;;;;;-140.72;100.00;52819.03;5023264;28;20048;-68
2022/10/29 04:34:39;;;;;;;8.18;3.95;;;;;;;-140.72;100.00;52855.56;5036733;28;20052;-69
2022/10/29 04:37:04;;;;;;;5.00;3.53;;;;;;;-140.72;100.00;52861.66;5036149;28;20029;-68
2022/10/29 04:39:30;;;;;;;5.63;3.97;;;;;;;-140.72;100.00;52788.59;5036462;28;20037;-68
2022/10/29 04:41:55;;;;;;;11.77;5.25;;;;;;;-140.72;100.00;52827.16;5032337;28;20080;-67
2022/10/29 04:44:20;;;;;;;4.20;3.47;;;;;;;-140.72;100.00;52857.59;5019405;28;20385;-70
2022/10/29 04:46:46;;;;;;;6.30;4.15;;;;;;;-140.72;100.00;52849.47;5027975;28;20405;-69
2022/10/29 04:49:11;;;;;;;5.80;2.83;;;;;;;-140.72;100.00;52881.94;5035082;28;20033;-68
2022/10/29 04:51:36;;;;;;;7.72;3.53;;;;;;;-140.72;100.00;52869.75;5032814;28;20055;-68
2022/10/29 04:54:02;;;;;;;5.00;3.70;;;;;;;-140.72;100.00;52827.16;5023527;28;20040;-69
2022/10/29 04:56:29;;;;;;;5.95;3.83;;;;;;;-140.72;100.00;52849.47;5032182;28;20029;-70
2022/10/29 04:58:54;;;;;;;4.75;3.03;;;;;;;-140.72;100.00;52879.91;5022002;28;20132;-68
2022/10/29 05:01:19;;;;;;;5.40;3.67;;;;;;;-140.72;100.00;52871.78;5034166;28;20053;-68
2022/10/29 05:03:45;;;;;;;4.60;3.53;;;;;;;-140.72;100.00;52843.38;5033236;28;20112;-68
2022/10/29 05:06:10;;;;;;;4.57;3.10;;;;;;;-140.72;100.00;52861.66;5033223;28;20029;-70
2022/10/29 05:08:36;;;;;;;4.90;3.58;;;;;;;-140.72;100.00;52886.00;5033021;28;20029;-70
2022/10/29 05:11:05;;;;;;;6.18;3.95;;;;;;;-140.72;100.00;52853.53;5020583;28;20545;-69
2022/10/29 05:13:32;;;;;;;5.05;3.35;;;;;;;-140.72;100.00;52857.59;5021790;28;20066;-71
2022/10/29 05:15:58;;;;;;;5.43;3.75;;;;;;;-140.72;100.00;52851.50;5030750;28;20469;-70
2022/10/29 05:18:23;;;;;;;4.32;2.85;;;;;;;-140.72;100.00;52849.47;5033572;28;20104;-70
2022/10/29 05:20:53;;;;;;;4.97;2.90;;;;;;;-140.72;100.00;52859.63;5021381;28;20030;-71
2022/10/29 05:23:33;;;;;;;5.72;3.60;;;;;;;-140.72;100.00;52829.19;5034344;28;20384;-69
2022/10/29 05:25:58;;;;;;;7.95;3.00;;;;;;;-140.72;100.00;52853.53;5031785;28;20025;-70
2022/10/29 05:28:24;;;;;;;4.85;3.17;;;;;;;-140.72;100.00;52871.78;5024962;28;20161;-70
2022/10/29 05:30:51;;;;;;;6.53;4.90;;;;;;;-140.72;100.00;52849.47;5031549;28;20038;-70
2022/10/29 05:33:19;;;;;;;8.65;4.35;;;;;;;-140.72;100.00;52892.09;5023930;28;20067;-70
2022/10/29 05:35:45;;;;;;;4.63;3.28;;;;;;;-140.72;100.00;52817.00;5019016;28;20088;-70
2022/10/29 05:38:12;;;;;;;7.18;4.20;;;;;;;-140.72;100.00;52865.69;5015363;28;20018;-70
2022/10/29 05:40:38;;;;;;;7.72;4.88;;;;;;;-140.72;100.00;52847.44;5031282;28;20033;-69
2022/10/29 05:43:03;;;;;;;7.82;5.05;;;;;;;-140.72;100.00;52827.16;5032415;28;20370;-71
2022/10/29 05:45:29;;;;;;;7.57;4.95;;;;;;;-140.72;100.00;52819.03;5035456;28;20075;-68
2022/10/29 05:47:59;;;;;;;5.65;4.22;;;;;;;-140.72;100.00;52883.97;5015439;28;20376;-68
2022/10/29 05:50:25;;;;;;;6.50;4.80;;;;;;;-140.72;100.00;52869.75;5023026;28;20032;-67
2022/10/29 05:52:57;;;;;;;7.57;5.72;;;;;;;-140.72;100.00;52849.47;5013552;28;20040;-68
2022/10/29 05:55:23;;;;;;;8.27;4.57;;;;;;;-140.72;100.00;52819.03;5027497;28;20033;-68
2022/10/29 05:57:48;;;;;;;7.03;4.93;;;;;;;-140.72;100.00;52812.94;5026266;28;20477;-68
2022/10/29 06:00:14;;;;;;;7.40;5.82;;;;;;;-140.72;100.00;52829.19;5031854;28;20100;-68
2022/10/29 06:02:42;;;;;;;9.80;6.20;;;;;;;-140.72;100.00;52857.59;5033712;28;20051;-68
2022/10/29 06:05:08;;;;;;;8.25;5.35;;;;;;;-140.72;100.00;52855.56;5032500;28;20556;-68
2022/10/29 06:07:33;;;;;;;6.80;4.78;;;;;;;-140.72;100.00;52881.94;5033598;28;20100;-68
2022/10/29 06:09:58;;;;;;;7.82;4.97;;;;;;;-140.72;100.00;52863.66;5032679;28;20033;-68
2022/10/29 06:12:23;;;;;;;6.70;5.28;;;;;;;-140.72;100.00;52857.59;5033560;28;20101;-68
2022/10/29 06:14:49;;;;;;;5.28;4.70;;;;;;;-140.72;100.00;52871.78;5032059;28;20029;-68
2022/10/29 06:17:14;;;;;;;10.32;5.43;;;;;;;-140.72;100.00;52847.44;5023427;28;20030;-67
2022/10/29 06:19:39;;;;;;;7.80;5.43;;;;;;;-140.72;100.00;52851.50;5031378;28;20022;-67
2022/10/29 06:22:05;;;;;;;10.18;5.25;;;;;;;-140.72;100.00;52853.53;5034406;28;20535;-68
2022/10/29 06:24:30;;;;;;;7.90;5.38;;;;;;;-140.72;100.00;52855.56;5020265;28;20037;-68
2022/10/29 06:26:55;;;;;;;8.73;6.07;;;;;;;-140.72;100.00;52877.88;5022253;28;20070;-69
2022/10/29 06:29:21;;;;;;;6.68;4.05;;;;;;;-140.72;100.00;52845.41;5027905;28;20113;-67
2022/10/29 06:31:46;;;;;;;7.70;5.68;;;;;;;-140.72;100.00;52843.38;5025371;28;20477;-68
2022/10/29 06:34:13;;;;;;;8.02;5.55;;;;;;;-140.72;100.00;52847.44;5032617;28;20068;-68
2022/10/29 06:36:38;;;;;;;9.63;6.45;;;;;;;-140.72;100.00;52821.06;5023574;28;20466;-68
2022/10/29 06:39:04;;;;;;;10.90;6.38;;;;;;;-140.72;100.00;52823.09;5031588;28;20033;-68
2022/10/29 06:41:29;;;;;;;8.63;6.43;;;;;;;-140.72;100.00;52837.28;5033661;28;20021;-68
2022/10/29 06:43:54;;;;;;;7.07;6.13;;;;;;;-140.72;100.00;52855.56;5031016;28;20017;-68
2022/10/29 06:46:20;;;;;;;12.40;6.05;;;;;;;-140.72;100.00;52873.81;5033629;28;20136;-68
2022/10/29 06:48:45;;;;;;;9.05;6.53;;;;;;;-140.72;100.00;52841.34;5031796;28;20124;-68
2022/10/29 06:51:10;;;;;;;12.23;7.13;;;;;;;-140.72;100.00;52833.22;5032223;28;20484;-68
2022/10/29 06:53:36;;;;;;;9.50;6.47;;;;;;;-140.72;100.00;52851.50;5018867;28;20400;-69
2022/10/29 06:56:01;;;;;;;12.65;7.20;;;;;;;-140.72;100.00;52825.13;5033196;28;20032;-68
2022/10/29 06:58:26;;;;;;;7.72;6.32;;;;;;;-140.72;100.00;52845.41;5031990;28;20028;-68
2022/10/29 07:00:52;;;;;;;8.10;6.68;;;;;;;-140.72;100.00;52837.28;5037690;28;20035;-69
2022/10/29 07:03:19;;;;;;;9.50;6.82;;;;;;;-140.72;100.00;52869.75;5037691;28;20029;-67
2022/10/29 07:05:45;;;;;;;9.10;6.35;;;;;;;-140.72;100.00;52794.69;5039557;28;20022;-68
2022/10/29 07:08:11;;;;;;;10.43;6.63;;;;;;;-140.72;100.00;52800.75;5037815;28;20080;-68
2022/10/29 07:10:36;;;;;;;8.98;7.50;;;;;;;-140.72;100.00;52831.19;5035951;28;20026;-68
2022/10/29 07:13:02;;;;;;;11.55;7.57;;;;;;;-140.72;100.00;52841.34;5034599;28;20060;-68
2022/10/29 07:15:28;;;;;;;10.77;7.00;;;;;;;-140.72;100.00;52831.19;5036684;28;20081;-68
2022/10/29 07:18:05;;;;;;;10.95;7.05;;;;;;;-140.72;100.00;52817.00;5032217;28;20071;-68
2022/10/29 07:20:33;;;;;;;12.38;7.70;;;;;;;-140.72;100.00;52821.06;5021721;28;20061;-68
2022/10/29 07:23:00;;;;;;;9.32;7.22;;;;;;;-140.72;100.00;52808.88;5035139;28;20040;-68
2022/10/29 07:25:26;;;;;;;8.43;7.07;;;;;;;-140.72;100.00;52808.88;5029102;28;20491;-68
2022/10/29 07:27:52;;;;;;;8.63;6.95;;;;;;;-140.72;100.00;52825.13;5036842;28;20037;-67
2022/10/29 07:30:18;;;;;;;11.65;8.18;;;;;;;-140.72;100.00;52819.03;5039296;28;20037;-69
2022/10/29 07:32:43;;;;;;;12.20;7.43;;;;;;;-140.72;100.00;52829.19;5024884;28;20033;-68
2022/10/29 07:35:08;;;;;;;12.50;7.70;;;;;;;-140.72;100.00;52786.56;5023677;28;20481;-68
2022/10/29 07:37:34;;;;;;;10.98;7.72;;;;;;;-140.72;100.00;52853.53;5023498;28;20017;-69
2022/10/29 07:39:59;;;;;;;12.10;7.72;;;;;;;-140.72;100.00;52812.94;5034401;28;20079;-68
2022/10/29 07:42:24;;;;;;;10.80;7.75;;;;;;;-140.72;100.00;52800.75;5034070;28;20118;-68
2022/10/29 07:44:50;;;;;;;10.27;8.65;;;;;;;-140.72;100.00;52837.28;5038901;28;20030;-69
2022/10/29 07:47:15;;;;;;;15.27;7.82;;;;;;;-140.72;100.00;52776.41;5032373;28;20099;-67
2022/10/29 07:49:40;;;;;;;12.10;7.75;;;;;;;-140.72;100.00;52812.94;5032669;28;20040;-68
2022/10/29 07:52:06;;;;;;;10.45;7.53;;;;;;;-140.72;100.00;52796.72;5028068;28;20033;-68
2022/10/29 07:54:31;;;;;;;11.55;7.05;;;;;;;-140.72;100.00;52780.47;5020629;28;20068;-69
2022/10/29 07:56:56;;;;;;;10.00;6.88;;;;;;;-140.72;100.00;52782.50;5035465;28;20021;-68
2022/10/29 07:59:22;;;;;;;10.60;7.07;;;;;;;-140.72;100.00;52762.22;5033342;28;20112;-69
2022/10/29 08:01:47;;;;;;;12.23;8.02;;;;;;;-140.72;100.00;52780.47;5035000;28;20117;-68
2022/10/29 08:04:12;;;;;;;15.27;8.88;;;;;;;-140.72;100.00;52788.59;5036759;28;20044;-69
2022/10/29 08:06:38;;;;;;;8.40;6.05;;;;;;;-140.72;100.00;52758.16;5020416;28;20026;-69
2022/10/29 08:09:04;;;;;;;8.45;7.03;;;;;;;-140.72;100.00;52788.59;5028925;28;20072;-69
2022/10/29 08:11:31;;;;;;;13.52;8.23;;;;;;;-140.72;100.00;52788.59;5022438;28;20114;-69
2022/10/29 08:13:56;;;;;;;13.48;7.18;;;;;;;-140.72;100.00;52770.31;5019485;28;20026;-70
2022/10/29 08:16:22;;;;;;;9.57;7.35;;;;;;;-140.72;100.00;52725.69;5023182;28;20025;-70
2022/10/29 08:18:47;;;;;;;10.23;7.43;;;;;;;-140.72;100.00;52784.53;5028791;28;20026;-69
2022/10/29 08:21:12;;;;;;;9.07;6.97;;;;;;;-140.72;100.00;52782.50;5029125;28;20045;-70
2022/10/29 08:23:38;;;;;;;9.07;6.85;;;;;;;-140.72;100.00;52756.13;5024176;28;20034;-70
2022/10/29 08:26:03;;;;;;;9.73;6.85;;;;;;;-140.72;100.00;52772.34;5023969;28;20026;-69
2022/10/29 08:28:28;;;;;;;10.88;8.15;;;;;;;-140.72;100.00;52752.06;5021265;28;20032;-68
2022/10/29 08:30:54;;;;;;;14.48;7.35;;;;;;;-140.72;100.00;52782.50;5031718;28;20028;-70
2022/10/29 08:33:19;;;;;;;9.20;6.38;;;;;;;-140.72;100.00;52745.97;5027468;28;20034;-70
2022/10/29 08:35:45;;;;;;;11.60;7.32;;;;;;;-140.72;100.00;52745.97;5027453;28;20053;-68
2022/10/29 08:38:10;;;;;;;13.00;6.40;;;;;;;-140.72;100.00;52778.44;5027362;28;20064;-68
2022/10/29 08:40:44;;;;;;;13.65;7.35;;;;;;;-140.72;100.00;52782.50;5027520;28;20034;-69
2022/10/29 08:43:22;;;;;;;13.52;7.10;;;;;;;-140.72;100.00;52750.03;5025118;28;20100;-68
2022/10/29 08:45:49;;;;;;;10.70;6.68;;;;;;;-140.72;100.00;52729.75;5019580;28;20030;-69
2022/10/29 08:48:17;;;;;;;10.90;7.63;;;;;;;-140.72;100.00;52739.88;5023703;28;20033;-68
2022/10/29 08:50:48;;;;;;;12.13;6.88;;;;;;;-140.72;100.00;52748.00;5021379;28;20037;-67
2022/10/29 08:53:18;;;;;;;11.48;7.00;;;;;;;-140.72;100.00;52754.09;5024856;28;20553;-67
2022/10/29 08:55:45;;;;;;;7.18;5.80;;;;;;;-140.72;100.00;52727.72;5023997;28;20033;-68
2022/10/29 08:58:26;;;;;;;10.75;6.28;;;;;;;-140.72;100.00;52725.69;5019481;28;20485;-68
2022/10/29 09:00:55;;;;;;;13.32;6.70;;;;;;;-140.72;100.00;52725.69;5032683;28;20026;-69
2022/10/29 09:03:21;;;;;;;9.68;6.80;;;;;;;-140.72;100.00;52695.25;5022922;28;20081;-69
2022/10/29 09:06:06;;;;;;;9.93;6.20;;;;;;;-140.72;100.00;52756.13;5022302;28;20045;-69
2022/10/29 09:08:49;;;;;;;8.00;5.50;;;;;;;-140.72;100.00;52772.34;5021600;28;20052;-69
2022/10/29 09:11:30;;;;;;;7.22;5.78;;;;;;;-140.72;100.00;52731.75;5022816;28;20033;-69
2022/10/29 09:14:29;;;;;;;11.93;6.28;;;;;;;-140.72;100.00;52679.00;5019453;28;20389;-67
2022/10/29 09:17:03;;;;;;;8.63;6.07;;;;;;;-140.72;100.00;52743.94;5029928;28;20029;-69
2022/10/29 09:19:50;;;;;;;10.65;6.07;;;;;;;-140.72;100.00;52681.03;5021133;28;20272;-69
2022/10/29 09:22:33;;;;;;;7.50;5.63;;;;;;;-140.72;100.00;52713.50;5015781;28;20034;-68
2022/10/29 09:25:17;;;;;;;7.50;5.53;;;;;;;-140.72;100.00;52695.25;5016771;28;20034;-71
2022/10/29 09:28:08;;;;;;;10.60;5.30;;;;;;;-140.72;100.00;52697.28;5029245;28;20037;-68
2022/10/29 09:30:46;;;;;;;7.05;4.78;;;;;;;-140.72;100.00;52683.06;5020639;28;20072;-68
2022/10/29 09:33:15;;;;;;;8.45;6.10;;;;;;;-140.72;100.00;52679.00;5027019;28;20042;-68
2022/10/29 09:35:46;;;;;;;7.25;5.20;;;;;;;-140.72;100.00;52735.81;5022863;28;20030;-69
2022/10/29 09:38:22;;;;;;;8.23;6.30;;;;;;;-140.72;100.00;52717.56;5028206;28;20026;-68
2022/10/29 09:40:48;;;;;;;13.38;5.32;;;;;;;-140.72;100.00;52731.75;5029183;28;20061;-69
2022/10/29 09:43:47;;;;;;;8.93;5.65;;;;;;;-140.72;100.00;52735.81;5027818;28;20053;-67
2022/10/29 09:46:20;;;;;;;9.30;6.95;;;;;;;-140.72;100.00;52666.84;5027229;28;20132;-68
2022/10/29 09:49:15;;;;;;;7.75;5.78;;;;;;;-140.72;100.00;52703.34;5022519;28;20495;-68
2022/10/29 09:51:57;;;;;;;9.35;5.68;;;;;;;-140.72;100.00;52707.41;5027750;28;20047;-69
2022/10/29 09:54:26;;;;;;;7.95;5.20;;;;;;;-140.72;100.00;52719.59;5024416;28;20025;-69
2022/10/29 09:56:51;;;;;;;7.53;5.55;;;;;;;-140.72;100.00;52699.31;5028540;28;20029;-68
2022/10/29 09:59:25;;;;;;;9.05;5.80;;;;;;;-140.72;100.00;52727.72;5030794;28;20091;-68
2022/10/29 10:01:51;;;;;;;9.88;5.43;;;;;;;-140.72;100.00;52745.97;5023892;28;20049;-69
2022/10/29 10:04:25;;;;;;;11.73;5.15;;;;;;;-140.72;100.00;52723.66;5021195;28;20381;-68
2022/10/29 10:07:09;;;;;;;11.73;5.60;;;;;;;-140.72;100.00;52717.56;5021127;28;20473;-68
2022/10/29 10:09:57;;;;;;;8.02;5.20;;;;;;;-140.72;100.00;52697.28;5021968;28;20037;-69
2022/10/29 10:12:42;;;;;;;13.35;5.35;;;;;;;-140.72;100.00;52721.63;5018318;28;20022;-68
2022/10/29 10:15:27;;;;;;;7.43;4.53;;;;;;;-140.72;100.00;52703.34;5020494;28;20021;-69
2022/10/29 10:17:54;;;;;;;10.35;5.40;;;;;;;-140.72;100.00;52670.88;5017516;28;20032;-70
2022/10/29 10:20:33;;;;;;;10.50;5.13;;;;;;;-140.72;100.00;52685.09;5025382;28;20428;-70
2022/10/29 10:22:59;;;;;;;9.25;4.95;;;;;;;-140.72;100.00;52687.13;5023341;28;20034;-70
2022/10/29 10:25:39;;;;;;;6.85;4.53;;;;;;;-140.72;100.00;52668.84;5026413;28;20025;-73
2022/10/29 10:28:17;;;;;;;10.95;4.72;;;;;;;-140.72;100.00;52674.94;5018193;28;20034;-69
2022/10/29 10:30:44;;;;;;;7.15;4.55;;;;;;;-140.72;100.00;52685.09;5020894;28;20034;-70
2022/10/29 10:33:20;;;;;;;5.88;4.55;;;;;;;-140.72;100.00;52654.66;5022536;28;20493;-71
2022/10/29 10:35:46;;;;;;;9.05;4.80;;;;;;;-140.72;100.00;52681.03;5025370;28;20036;-69
2022/10/29 10:38:13;;;;;;;7.25;4.65;;;;;;;-140.72;100.00;52687.13;5029217;28;20025;-71
2022/10/29 10:40:41;;;;;;;8.63;4.72;;;;;;;-140.72;100.00;52679.00;5029654;28;20049;-71
2022/10/29 10:43:19;;;;;;;7.38;4.93;;;;;;;-140.72;100.00;52670.88;5029400;28;20091;-71
2022/10/29 10:45:53;;;;;;;8.27;4.82;;;;;;;-140.72;100.00;52689.16;5028572;28;20022;-70
2022/10/29 10:48:18;;;;;;;10.00;5.07;;;;;;;-140.72;100.00;52674.94;5033150;28;20116;-69
2022/10/29 10:50:43;;;;;;;12.23;4.93;;;;;;;-140.72;100.00;52654.66;5034407;28;20049;-72
2022/10/29 10:53:19;;;;;;;5.25;4.07;;;;;;;-140.72;100.00;52652.63;5051471;28;20060;-70
2022/10/29 10:55:49;;;;;;;9.18;4.88;;;;;;;-140.72;100.00;52626.25;5041886;28;20481;-71
2022/10/29 10:58:37;;;;;;;9.55;4.63;;;;;;;-140.72;100.00;52595.81;5036373;28;20045;-69
2022/10/29 11:01:09;;;;;;;7.28;4.40;;;;;;;-140.72;100.00;52614.06;5036126;28;20037;-69
2022/10/29 11:03:44;;;;;;;8.63;3.58;;;;;;;-140.72;100.00;52512.59;5034291;28;20081;-71
2022/10/29 11:06:34;;;;;;;13.40;4.03;;;;;;;-140.72;100.00;52524.78;5037581;28;20034;-72
2022/10/29 11:09:07;;;;;;;6.28;3.08;;;;;;;-140.72;100.00;52565.38;5034254;28;20042;-72
2022/10/29 11:11:42;;;;;;;7.80;3.50;;;;;;;-140.72;100.00;52601.91;5032471;28;20046;-72
2022/10/29 11:14:21;;;;;;;7.82;3.33;;;;;;;-140.72;100.00;52567.41;5042648;28;20009;-80
2022/10/29 11:16:51;;;;;;;6.97;3.42;;;;;;;-140.72;100.00;52591.75;5036132;28;20022;-69
2022/10/29 11:19:32;;;;;;;5.45;3.13;;;;;;;-140.72;100.00;52583.63;5036212;28;20053;-73